sensor_id;sensor_type;location;lat;lon;timestamp;P1;durP1;ratioP1;P2;durP2;ratioP2
9100;SDS011;4586;52.518;13.486;2022-11-03T00:00:13;6.17;;;2.73;;
9100;SDS011;4586;52.518;13.486;2022-11-03T00:04:15;2.83;;;2.40;;
9100;SDS011;4586;52.518;13.486;2022-11-03T00:08:16;3.00;;;2.27;;
9100;SDS011;4586;52.518;13.486;2022-11-03T00:12:17;4.13;;;2.33;;
9100;SDS011;4586;52.518;13.486;2022-11-03T00:16:18;5.20;;;2.80;;
9100;SDS011;4586;52.518;13.486;2022-11-03T00:20:19;4.37;;;2.60;;
9100;SDS011;4586;52.518;13.486;2022-11-03T00:24:20;4.27;;;2.47;;
9100;SDS011;4586;52.518;13.486;2022-11-03T00:28:21;2.97;;;2.20;;
9100;SDS011;4586;52.518;13.486;2022-11-03T00:32:22;3.07;;;2.17;;
9100;SDS011;4586;52.518;13.486;2022-11-03T00:36:24;4.20;;;2.00;;
9100;SDS011;4586;52.518;13.486;2022-11-03T00:40:25;4.43;;;2.40;;
9100;SDS011;4586;52.518;13.486;2022-11-03T00:44:26;3.60;;;2.30;;
9100;SDS011;4586;52.518;13.486;2022-11-03T00:48:27;4.00;;;2.30;;
9100;SDS011;4586;52.518;13.486;2022-11-03T00:52:28;2.10;;;1.90;;
9100;SDS011;4586;52.518;13.486;2022-11-03T00:56:30;4.53;;;2.57;;
9100;SDS011;4586;52.518;13.486;2022-11-03T01:00:32;3.53;;;2.27;;
9100;SDS011;4586;52.518;13.486;2022-11-03T01:04:33;4.67;;;2.77;;
9100;SDS011;4586;52.518;13.486;2022-11-03T01:08:34;3.83;;;2.00;;
9100;SDS011;4586;52.518;13.486;2022-11-03T01:12:35;4.47;;;2.30;;
9100;SDS011;4586;52.518;13.486;2022-11-03T01:16:36;2.90;;;2.07;;
9100;SDS011;4586;52.518;13.486;2022-11-03T01:20:37;3.80;;;2.20;;
9100;SDS011;4586;52.518;13.486;2022-11-03T01:24:39;2.83;;;2.00;;
9100;SDS011;4586;52.518;13.486;2022-11-03T02:21:04;2.73;;;1.87;;
9100;SDS011;4586;52.518;13.486;2022-11-03T02:29:28;4.63;;;1.83;;
9100;SDS011;4586;52.518;13.486;2022-11-03T02:33:46;3.77;;;2.07;;
9100;SDS011;4586;52.518;13.486;2022-11-03T02:37:50;6.63;;;2.03;;
9100;SDS011;4586;52.518;13.486;2022-11-03T02:41:53;4.00;;;2.57;;
9100;SDS011;4586;52.518;13.486;2022-11-03T02:45:56;2.47;;;1.90;;
9100;SDS011;4586;52.518;13.486;2022-11-03T02:49:57;3.77;;;2.23;;
9100;SDS011;4586;52.518;13.486;2022-11-03T02:54:40;3.10;;;2.33;;
9100;SDS011;4586;52.518;13.486;2022-11-03T02:58:29;7.23;;;2.23;;
9100;SDS011;4586;52.518;13.486;2022-11-03T03:02:54;2.57;;;2.00;;
9100;SDS011;4586;52.518;13.486;2022-11-03T03:07:01;4.03;;;2.30;;
9100;SDS011;4586;52.518;13.486;2022-11-03T03:11:02;5.70;;;2.43;;
9100;SDS011;4586;52.518;13.486;2022-11-03T03:15:05;5.30;;;2.20;;
9100;SDS011;4586;52.518;13.486;2022-11-03T03:19:27;4.47;;;2.00;;
9100;SDS011;4586;52.518;13.486;2022-11-03T03:23:31;3.33;;;1.60;;
9100;SDS011;4586;52.518;13.486;2022-11-03T03:27:33;2.73;;;2.10;;
9100;SDS011;4586;52.518;13.486;2022-11-03T03:31:35;2.40;;;1.80;;
9100;SDS011;4586;52.518;13.486;2022-11-03T03:35:38;3.03;;;1.77;;
9100;SDS011;4586;52.518;13.486;2022-11-03T03:39:41;4.00;;;2.00;;
9100;SDS011;4586;52.518;13.486;2022-11-03T03:43:43;4.97;;;2.10;;
9100;SDS011;4586;52.518;13.486;2022-11-03T03:47:44;3.30;;;2.00;;
9100;SDS011;4586;52.518;13.486;2022-11-03T03:51:45;2.13;;;1.73;;
9100;SDS011;4586;52.518;13.486;2022-11-03T03:55:49;2.33;;;1.90;;
9100;SDS011;4586;52.518;13.486;2022-11-03T03:59:51;2.63;;;2.10;;
9100;SDS011;4586;52.518;13.486;2022-11-03T04:03:52;3.07;;;1.80;;
9100;SDS011;4586;52.518;13.486;2022-11-03T04:07:52;4.30;;;2.40;;
9100;SDS011;4586;52.518;13.486;2022-11-03T04:11:53;2.30;;;1.90;;
9100;SDS011;4586;52.518;13.486;2022-11-03T04:15:54;2.63;;;1.80;;
9100;SDS011;4586;52.518;13.486;2022-11-03T04:19:55;2.57;;;2.00;;
9100;SDS011;4586;52.518;13.486;2022-11-03T04:23:57;3.27;;;2.00;;
9100;SDS011;4586;52.518;13.486;2022-11-03T04:27:58;3.53;;;2.63;;
9100;SDS011;4586;52.518;13.486;2022-11-03T04:31:58;3.03;;;2.03;;
9100;SDS011;4586;52.518;13.486;2022-11-03T04:36:00;3.83;;;2.13;;
9100;SDS011;4586;52.518;13.486;2022-11-03T04:40:01;2.93;;;2.20;;
9100;SDS011;4586;52.518;13.486;2022-11-03T04:44:02;3.40;;;2.17;;
9100;SDS011;4586;52.518;13.486;2022-11-03T04:48:15;8.47;;;2.03;;
9100;SDS011;4586;52.518;13.486;2022-11-03T04:52:17;3.20;;;1.93;;
9100;SDS011;4586;52.518;13.486;2022-11-03T04:56:19;2.20;;;1.70;;
9100;SDS011;4586;52.518;13.486;2022-11-03T05:00:20;5.50;;;2.43;;
9100;SDS011;4586;52.518;13.486;2022-11-03T05:04:21;3.77;;;1.97;;
9100;SDS011;4586;52.518;13.486;2022-11-03T05:24:25;1.97;;;1.73;;
9100;SDS011;4586;52.518;13.486;2022-11-03T05:28:27;2.67;;;1.73;;
9100;SDS011;4586;52.518;13.486;2022-11-03T05:32:31;2.80;;;2.00;;
9100;SDS011;4586;52.518;13.486;2022-11-03T05:36:32;2.20;;;1.67;;
9100;SDS011;4586;52.518;13.486;2022-11-03T05:40:33;2.40;;;1.90;;
9100;SDS011;4586;52.518;13.486;2022-11-03T05:44:35;5.70;;;2.07;;
9100;SDS011;4586;52.518;13.486;2022-11-03T05:48:37;3.03;;;1.70;;
9100;SDS011;4586;52.518;13.486;2022-11-03T05:52:39;3.77;;;1.77;;
9100;SDS011;4586;52.518;13.486;2022-11-03T05:56:40;3.70;;;2.30;;
9100;SDS011;4586;52.518;13.486;2022-11-03T06:00:41;3.07;;;1.83;;
9100;SDS011;4586;52.518;13.486;2022-11-03T06:04:42;5.10;;;2.07;;
9100;SDS011;4586;52.518;13.486;2022-11-03T06:08:43;1.67;;;1.50;;
9100;SDS011;4586;52.518;13.486;2022-11-03T06:12:44;6.27;;;2.30;;
9100;SDS011;4586;52.518;13.486;2022-11-03T06:16:51;4.57;;;3.03;;
9100;SDS011;4586;52.518;13.486;2022-11-03T06:20:55;2.57;;;1.90;;
9100;SDS011;4586;52.518;13.486;2022-11-03T06:24:58;3.00;;;1.80;;
9100;SDS011;4586;52.518;13.486;2022-11-03T06:28:59;2.90;;;1.80;;
9100;SDS011;4586;52.518;13.486;2022-11-03T06:33:14;4.63;;;2.10;;
9100;SDS011;4586;52.518;13.486;2022-11-03T06:41:18;3.97;;;2.27;;
9100;SDS011;4586;52.518;13.486;2022-11-03T06:45:21;2.10;;;1.60;;
9100;SDS011;4586;52.518;13.486;2022-11-03T06:49:30;4.70;;;2.43;;
9100;SDS011;4586;52.518;13.486;2022-11-03T06:53:31;3.07;;;1.80;;
9100;SDS011;4586;52.518;13.486;2022-11-03T06:57:36;4.13;;;1.70;;
9100;SDS011;4586;52.518;13.486;2022-11-03T07:01:37;3.03;;;1.53;;
9100;SDS011;4586;52.518;13.486;2022-11-03T07:05:38;4.67;;;2.30;;
9100;SDS011;4586;52.518;13.486;2022-11-03T07:09:39;4.20;;;2.20;;
9100;SDS011;4586;52.518;13.486;2022-11-03T07:13:40;4.03;;;1.83;;
9100;SDS011;4586;52.518;13.486;2022-11-03T07:17:41;4.13;;;2.60;;
9100;SDS011;4586;52.518;13.486;2022-11-03T07:21:43;3.60;;;2.03;;
9100;SDS011;4586;52.518;13.486;2022-11-03T07:25:45;5.27;;;2.13;;
9100;SDS011;4586;52.518;13.486;2022-11-03T07:29:47;3.50;;;2.03;;
9100;SDS011;4586;52.518;13.486;2022-11-03T07:33:49;4.73;;;1.77;;
9100;SDS011;4586;52.518;13.486;2022-11-03T07:37:55;4.33;;;2.23;;
9100;SDS011;4586;52.518;13.486;2022-11-03T07:41:56;5.67;;;2.27;;
9100;SDS011;4586;52.518;13.486;2022-11-03T07:46:02;2.47;;;1.50;;
9100;SDS011;4586;52.518;13.486;2022-11-03T07:50:05;2.83;;;1.63;;
9100;SDS011;4586;52.518;13.486;2022-11-03T07:58:14;2.67;;;1.93;;
9100;SDS011;4586;52.518;13.486;2022-11-03T08:02:25;5.43;;;2.20;;
9100;SDS011;4586;52.518;13.486;2022-11-03T08:06:29;2.67;;;1.90;;
9100;SDS011;4586;52.518;13.486;2022-11-03T08:10:30;5.47;;;2.17;;
9100;SDS011;4586;52.518;13.486;2022-11-03T08:14:31;2.63;;;1.73;;
9100;SDS011;4586;52.518;13.486;2022-11-03T08:18:32;3.03;;;1.73;;
9100;SDS011;4586;52.518;13.486;2022-11-03T08:22:33;2.33;;;1.83;;
9100;SDS011;4586;52.518;13.486;2022-11-03T08:26:34;4.73;;;1.93;;
9100;SDS011;4586;52.518;13.486;2022-11-03T08:30:35;4.73;;;2.20;;
9100;SDS011;4586;52.518;13.486;2022-11-03T08:34:36;3.30;;;2.03;;
9100;SDS011;4586;52.518;13.486;2022-11-03T08:38:37;4.10;;;2.13;;
9100;SDS011;4586;52.518;13.486;2022-11-03T08:42:38;5.93;;;2.57;;
9100;SDS011;4586;52.518;13.486;2022-11-03T08:46:39;3.00;;;1.83;;
9100;SDS011;4586;52.518;13.486;2022-11-03T08:50:40;2.00;;;1.77;;
9100;SDS011;4586;52.518;13.486;2022-11-03T08:54:41;2.20;;;1.83;;
9100;SDS011;4586;52.518;13.486;2022-11-03T08:58:42;4.10;;;1.90;;
9100;SDS011;4586;52.518;13.486;2022-11-03T09:02:43;5.50;;;2.67;;
9100;SDS011;4586;52.518;13.486;2022-11-03T09:06:44;2.90;;;1.47;;
9100;SDS011;4586;52.518;13.486;2022-11-03T09:10:45;1.63;;;1.20;;
9100;SDS011;4586;52.518;13.486;2022-11-03T09:14:46;1.73;;;1.30;;
9100;SDS011;4586;52.518;13.486;2022-11-03T09:18:47;2.93;;;1.70;;
9100;SDS011;4586;52.518;13.486;2022-11-03T09:22:48;3.70;;;1.53;;
9100;SDS011;4586;52.518;13.486;2022-11-03T09:26:49;3.67;;;1.60;;
9100;SDS011;4586;52.518;13.486;2022-11-03T09:30:50;1.27;;;0.97;;
9100;SDS011;4586;52.518;13.486;2022-11-03T09:34:51;2.20;;;1.30;;
9100;SDS011;4586;52.518;13.486;2022-11-03T09:38:52;3.10;;;1.50;;
9100;SDS011;4586;52.518;13.486;2022-11-03T09:42:53;1.47;;;1.20;;
9100;SDS011;4586;52.518;13.486;2022-11-03T09:46:55;2.73;;;1.60;;
9100;SDS011;4586;52.518;13.486;2022-11-03T09:50:56;1.67;;;1.20;;
9100;SDS011;4586;52.518;13.486;2022-11-03T09:54:57;2.87;;;0.80;;
9100;SDS011;4586;52.518;13.486;2022-11-03T09:58:58;1.30;;;1.10;;
9100;SDS011;4586;52.518;13.486;2022-11-03T10:03:00;1.40;;;1.00;;
9100;SDS011;4586;52.518;13.486;2022-11-03T10:07:01;3.47;;;1.03;;
9100;SDS011;4586;52.518;13.486;2022-11-03T10:11:05;2.57;;;0.80;;
9100;SDS011;4586;52.518;13.486;2022-11-03T17:49:06;4.43;;;2.20;;
9100;SDS011;4586;52.518;13.486;2022-11-03T17:53:07;2.43;;;1.97;;
9100;SDS011;4586;52.518;13.486;2022-11-03T17:57:16;2.73;;;1.73;;
9100;SDS011;4586;52.518;13.486;2022-11-03T18:01:21;4.07;;;2.40;;
9100;SDS011;4586;52.518;13.486;2022-11-03T18:05:27;5.20;;;2.10;;
9100;SDS011;4586;52.518;13.486;2022-11-03T18:09:28;11.43;;;4.70;;
9100;SDS011;4586;52.518;13.486;2022-11-03T18:13:29;10.83;;;6.77;;
9100;SDS011;4586;52.518;13.486;2022-11-03T18:17:31;18.20;;;10.97;;
9100;SDS011;4586;52.518;13.486;2022-11-03T18:21:32;15.73;;;7.87;;
9100;SDS011;4586;52.518;13.486;2022-11-03T18:25:33;9.97;;;6.17;;
9100;SDS011;4586;52.518;13.486;2022-11-03T18:29:34;15.63;;;7.50;;
9100;SDS011;4586;52.518;13.486;2022-11-03T18:33:35;15.20;;;8.00;;
9100;SDS011;4586;52.518;13.486;2022-11-03T18:37:36;11.30;;;6.23;;
9100;SDS011;4586;52.518;13.486;2022-11-03T18:41:37;8.75;;;4.85;;
9100;SDS011;4586;52.518;13.486;2022-11-03T18:45:38;5.30;;;2.67;;
9100;SDS011;4586;52.518;13.486;2022-11-03T18:49:39;6.53;;;2.40;;
9100;SDS011;4586;52.518;13.486;2022-11-03T18:53:40;3.93;;;2.70;;
9100;SDS011;4586;52.518;13.486;2022-11-03T18:57:41;3.23;;;2.27;;
9100;SDS011;4586;52.518;13.486;2022-11-03T20:21:59;4.17;;;2.60;;
9100;SDS011;4586;52.518;13.486;2022-11-03T20:26:01;6.90;;;2.90;;
9100;SDS011;4586;52.518;13.486;2022-11-03T20:30:02;10.63;;;5.97;;
9100;SDS011;4586;52.518;13.486;2022-11-03T20:34:03;3.30;;;2.30;;
9100;SDS011;4586;52.518;13.486;2022-11-03T20:38:04;5.27;;;3.40;;
9100;SDS011;4586;52.518;13.486;2022-11-03T20:42:05;3.17;;;2.20;;
9100;SDS011;4586;52.518;13.486;2022-11-03T20:46:22;5.13;;;2.33;;
9100;SDS011;4586;52.518;13.486;2022-11-03T20:50:24;6.33;;;3.53;;
9100;SDS011;4586;52.518;13.486;2022-11-03T20:54:25;4.50;;;2.43;;
9100;SDS011;4586;52.518;13.486;2022-11-03T20:58:26;5.00;;;2.43;;
9100;SDS011;4586;52.518;13.486;2022-11-03T21:02:27;4.50;;;3.27;;
9100;SDS011;4586;52.518;13.486;2022-11-03T21:06:28;5.40;;;3.13;;
9100;SDS011;4586;52.518;13.486;2022-11-03T21:10:30;3.27;;;2.40;;
9100;SDS011;4586;52.518;13.486;2022-11-03T21:14:31;4.17;;;2.60;;
9100;SDS011;4586;52.518;13.486;2022-11-03T21:18:32;3.00;;;2.30;;
9100;SDS011;4586;52.518;13.486;2022-11-03T21:22:42;8.17;;;3.13;;
9100;SDS011;4586;52.518;13.486;2022-11-03T22:59:04;8.20;;;3.30;;
9100;SDS011;4586;52.518;13.486;2022-11-03T23:03:05;4.03;;;2.97;;
9100;SDS011;4586;52.518;13.486;2022-11-03T23:07:06;4.43;;;3.03;;
9100;SDS011;4586;52.518;13.486;2022-11-03T23:11:09;5.47;;;3.10;;
9100;SDS011;4586;52.518;13.486;2022-11-03T23:15:10;4.97;;;3.20;;
9100;SDS011;4586;52.518;13.486;2022-11-03T23:19:12;7.57;;;3.50;;
